sensor_id;sensor_type;location;lat;lon;timestamp;P1;durP1;ratioP1;P2;durP2;ratioP2
53145;SDS011;39042;53.150;5.898;2024-03-23T00:55:40;26.40;;;4.57;;
53145;SDS011;39042;53.150;5.898;2024-03-23T00:58:06;35.25;;;6.05;;
53145;SDS011;39042;53.150;5.898;2024-03-23T01:00:32;24.98;;;4.82;;
53145;SDS011;39042;53.150;5.898;2024-03-23T01:02:58;23.63;;;3.83;;
53145;SDS011;39042;53.150;5.898;2024-03-23T01:05:24;27.63;;;4.03;;
53145;SDS011;39042;53.150;5.898;2024-03-23T01:07:50;35.07;;;4.83;;
53145;SDS011;39042;53.150;5.898;2024-03-23T01:10:16;27.03;;;4.43;;
53145;SDS011;39042;53.150;5.898;2024-03-23T01:12:42;29.02;;;4.50;;
53145;SDS011;39042;53.150;5.898;2024-03-23T01:15:08;26.60;;;4.53;;
53145;SDS011;39042;53.150;5.898;2024-03-23T01:17:34;22.23;;;4.28;;
53145;SDS011;39042;53.150;5.898;2024-03-23T01:20:00;19.30;;;3.47;;
53145;SDS011;39042;53.150;5.898;2024-03-23T01:22:25;22.23;;;3.97;;
53145;SDS011;39042;53.150;5.898;2024-03-23T01:24:51;31.97;;;5.07;;
53145;SDS011;39042;53.150;5.898;2024-03-23T01:27:17;25.73;;;4.07;;
53145;SDS011;39042;53.150;5.898;2024-03-23T01:29:43;13.65;;;2.53;;
53145;SDS011;39042;53.150;5.898;2024-03-23T01:32:09;22.02;;;3.88;;
53145;SDS011;39042;53.150;5.898;2024-03-23T01:34:35;20.83;;;3.60;;
53145;SDS011;39042;53.150;5.898;2024-03-23T01:37:01;20.07;;;3.30;;
53145;SDS011;39042;53.150;5.898;2024-03-23T01:39:26;13.60;;;2.47;;
53145;SDS011;39042;53.150;5.898;2024-03-23T01:41:52;19.30;;;3.13;;
53145;SDS011;39042;53.150;5.898;2024-03-23T01:44:21;21.10;;;3.70;;
53145;SDS011;39042;53.150;5.898;2024-03-23T01:46:46;14.27;;;3.08;;
53145;SDS011;39042;53.150;5.898;2024-03-23T01:49:12;18.13;;;3.53;;
53145;SDS011;39042;53.150;5.898;2024-03-23T01:51:38;18.40;;;3.00;;
53145;SDS011;39042;53.150;5.898;2024-03-23T01:54:04;18.55;;;2.95;;
53145;SDS011;39042;53.150;5.898;2024-03-23T01:56:32;23.15;;;4.28;;
53145;SDS011;39042;53.150;5.898;2024-03-23T01:59:06;13.13;;;2.72;;
53145;SDS011;39042;53.150;5.898;2024-03-23T02:01:32;21.52;;;3.08;;
53145;SDS011;39042;53.150;5.898;2024-03-23T02:04:01;17.58;;;3.53;;
53145;SDS011;39042;53.150;5.898;2024-03-23T02:06:27;17.13;;;2.97;;
53145;SDS011;39042;53.150;5.898;2024-03-23T02:08:54;16.00;;;3.10;;
53145;SDS011;39042;53.150;5.898;2024-03-23T02:11:20;14.85;;;2.17;;
53145;SDS011;39042;53.150;5.898;2024-03-23T02:13:46;17.23;;;3.40;;
53145;SDS011;39042;53.150;5.898;2024-03-23T02:16:12;15.23;;;2.33;;
53145;SDS011;39042;53.150;5.898;2024-03-23T02:18:38;19.83;;;3.58;;
53145;SDS011;39042;53.150;5.898;2024-03-23T02:21:04;16.13;;;3.20;;
53145;SDS011;39042;53.150;5.898;2024-03-23T02:23:30;14.60;;;2.85;;
53145;SDS011;39042;53.150;5.898;2024-03-23T02:25:56;19.97;;;2.80;;
53145;SDS011;39042;53.150;5.898;2024-03-23T02:28:22;13.30;;;1.93;;
53145;SDS011;39042;53.150;5.898;2024-03-23T02:30:48;13.68;;;2.67;;
53145;SDS011;39042;53.150;5.898;2024-03-23T02:33:14;16.33;;;2.17;;
53145;SDS011;39042;53.150;5.898;2024-03-23T02:35:41;18.00;;;3.80;;
53145;SDS011;39042;53.150;5.898;2024-03-23T02:38:07;18.35;;;2.10;;
53145;SDS011;39042;53.150;5.898;2024-03-23T02:40:33;13.93;;;3.03;;
53145;SDS011;39042;53.150;5.898;2024-03-23T02:42:59;10.07;;;2.10;;
53145;SDS011;39042;53.150;5.898;2024-03-23T02:45:24;12.37;;;1.70;;
53145;SDS011;39042;53.150;5.898;2024-03-23T02:47:50;12.37;;;2.10;;
53145;SDS011;39042;53.150;5.898;2024-03-23T02:50:20;12.05;;;2.17;;
53145;SDS011;39042;53.150;5.898;2024-03-23T02:52:46;13.85;;;2.38;;
53145;SDS011;39042;53.150;5.898;2024-03-23T02:55:12;17.95;;;2.17;;
53145;SDS011;39042;53.150;5.898;2024-03-23T02:57:38;17.90;;;1.98;;
53145;SDS011;39042;53.150;5.898;2024-03-23T03:00:05;19.42;;;2.75;;
53145;SDS011;39042;53.150;5.898;2024-03-23T03:02:32;18.13;;;2.85;;
53145;SDS011;39042;53.150;5.898;2024-03-23T03:04:58;20.63;;;2.47;;
53145;SDS011;39042;53.150;5.898;2024-03-23T03:07:24;15.88;;;2.60;;
53145;SDS011;39042;53.150;5.898;2024-03-23T03:09:50;14.93;;;2.50;;
53145;SDS011;39042;53.150;5.898;2024-03-23T03:12:16;12.17;;;1.83;;
53145;SDS011;39042;53.150;5.898;2024-03-23T03:14:42;14.43;;;2.27;;
53145;SDS011;39042;53.150;5.898;2024-03-23T03:17:08;14.23;;;2.80;;
53145;SDS011;39042;53.150;5.898;2024-03-23T03:19:33;11.00;;;1.47;;
53145;SDS011;39042;53.150;5.898;2024-03-23T03:21:59;14.07;;;2.17;;
53145;SDS011;39042;53.150;5.898;2024-03-23T03:24:25;24.87;;;3.40;;
53145;SDS011;39042;53.150;5.898;2024-03-23T03:26:51;12.97;;;1.73;;
53145;SDS011;39042;53.150;5.898;2024-03-23T03:29:17;16.07;;;1.93;;
53145;SDS011;39042;53.150;5.898;2024-03-23T03:31:43;17.73;;;2.43;;
53145;SDS011;39042;53.150;5.898;2024-03-23T03:34:09;16.00;;;2.42;;
53145;SDS011;39042;53.150;5.898;2024-03-23T03:36:35;19.98;;;2.33;;
53145;SDS011;39042;53.150;5.898;2024-03-23T03:39:00;17.73;;;2.70;;
53145;SDS011;39042;53.150;5.898;2024-03-23T03:41:28;12.40;;;2.28;;
53145;SDS011;39042;53.150;5.898;2024-03-23T03:43:54;8.93;;;1.63;;
53145;SDS011;39042;53.150;5.898;2024-03-23T03:46:20;14.38;;;1.55;;
53145;SDS011;39042;53.150;5.898;2024-03-23T03:48:46;19.70;;;2.40;;
53145;SDS011;39042;53.150;5.898;2024-03-23T03:51:13;15.45;;;2.85;;
53145;SDS011;39042;53.150;5.898;2024-03-23T03:53:39;17.17;;;2.83;;
53145;SDS011;39042;53.150;5.898;2024-03-23T03:56:06;14.63;;;2.63;;
53145;SDS011;39042;53.150;5.898;2024-03-23T03:58:32;17.10;;;2.90;;
53145;SDS011;39042;53.150;5.898;2024-03-23T04:00:57;17.00;;;2.13;;
53145;SDS011;39042;53.150;5.898;2024-03-23T04:03:23;19.67;;;2.10;;
53145;SDS011;39042;53.150;5.898;2024-03-23T04:05:52;11.07;;;1.90;;
53145;SDS011;39042;53.150;5.898;2024-03-23T04:08:19;18.52;;;2.30;;
53145;SDS011;39042;53.150;5.898;2024-03-23T04:10:45;17.15;;;2.22;;
53145;SDS011;39042;53.150;5.898;2024-03-23T04:13:12;17.23;;;1.88;;
53145;SDS011;39042;53.150;5.898;2024-03-23T04:15:38;17.90;;;2.38;;
53145;SDS011;39042;53.150;5.898;2024-03-23T04:18:04;20.73;;;3.60;;
53145;SDS011;39042;53.150;5.898;2024-03-23T04:20:30;16.80;;;2.27;;
53145;SDS011;39042;53.150;5.898;2024-03-23T04:25:23;17.98;;;2.53;;
53145;SDS011;39042;53.150;5.898;2024-03-23T04:27:49;19.73;;;3.70;;
53145;SDS011;39042;53.150;5.898;2024-03-23T04:30:15;19.77;;;2.00;;
53145;SDS011;39042;53.150;5.898;2024-03-23T04:32:41;11.10;;;1.05;;
53145;SDS011;39042;53.150;5.898;2024-03-23T04:35:07;19.97;;;2.10;;
53145;SDS011;39042;53.150;5.898;2024-03-23T04:37:36;15.57;;;2.33;;
53145;SDS011;39042;53.150;5.898;2024-03-23T04:40:03;17.83;;;2.85;;
53145;SDS011;39042;53.150;5.898;2024-03-23T04:42:29;18.17;;;2.20;;
53145;SDS011;39042;53.150;5.898;2024-03-23T04:44:55;13.48;;;1.85;;
53145;SDS011;39042;53.150;5.898;2024-03-23T04:47:21;20.92;;;2.35;;
53145;SDS011;39042;53.150;5.898;2024-03-23T04:49:47;10.50;;;2.00;;
53145;SDS011;39042;53.150;5.898;2024-03-23T04:52:15;20.60;;;2.20;;
53145;SDS011;39042;53.150;5.898;2024-03-23T04:54:41;16.83;;;2.65;;
53145;SDS011;39042;53.150;5.898;2024-03-23T04:57:07;14.93;;;1.60;;
53145;SDS011;39042;53.150;5.898;2024-03-23T04:59:33;9.57;;;1.75;;
53145;SDS011;39042;53.150;5.898;2024-03-23T05:01:59;21.63;;;2.10;;
53145;SDS011;39042;53.150;5.898;2024-03-23T05:04:25;12.68;;;1.48;;
53145;SDS011;39042;53.150;5.898;2024-03-23T05:06:52;16.13;;;2.00;;
53145;SDS011;39042;53.150;5.898;2024-03-23T05:09:17;10.73;;;1.33;;
53145;SDS011;39042;53.150;5.898;2024-03-23T05:11:43;13.53;;;2.03;;
53145;SDS011;39042;53.150;5.898;2024-03-23T05:14:10;20.27;;;2.75;;
53145;SDS011;39042;53.150;5.898;2024-03-23T05:16:39;10.77;;;1.90;;
53145;SDS011;39042;53.150;5.898;2024-03-23T05:19:06;12.18;;;2.05;;
53145;SDS011;39042;53.150;5.898;2024-03-23T05:21:31;4.03;;;0.90;;
53145;SDS011;39042;53.150;5.898;2024-03-23T05:23:57;7.40;;;1.10;;
53145;SDS011;39042;53.150;5.898;2024-03-23T05:26:23;13.43;;;1.33;;
53145;SDS011;39042;53.150;5.898;2024-03-23T05:28:49;10.83;;;1.27;;
53145;SDS011;39042;53.150;5.898;2024-03-23T05:31:24;13.13;;;1.70;;
53145;SDS011;39042;53.150;5.898;2024-03-23T05:33:54;12.65;;;1.55;;
53145;SDS011;39042;53.150;5.898;2024-03-23T05:36:20;11.80;;;2.07;;
53145;SDS011;39042;53.150;5.898;2024-03-23T05:38:46;15.75;;;2.58;;
53145;SDS011;39042;53.150;5.898;2024-03-23T05:41:11;15.20;;;2.10;;
53145;SDS011;39042;53.150;5.898;2024-03-23T05:43:37;10.47;;;1.83;;
53145;SDS011;39042;53.150;5.898;2024-03-23T05:46:03;9.53;;;1.50;;
53145;SDS011;39042;53.150;5.898;2024-03-23T05:48:30;13.93;;;1.70;;
53145;SDS011;39042;53.150;5.898;2024-03-23T05:50:57;9.25;;;2.35;;
53145;SDS011;39042;53.150;5.898;2024-03-23T05:53:23;9.70;;;2.00;;
53145;SDS011;39042;53.150;5.898;2024-03-23T05:55:49;12.98;;;1.95;;
53145;SDS011;39042;53.150;5.898;2024-03-23T05:58:18;13.25;;;2.08;;
53145;SDS011;39042;53.150;5.898;2024-03-23T06:00:45;12.90;;;2.45;;
53145;SDS011;39042;53.150;5.898;2024-03-23T06:03:11;11.65;;;2.80;;
53145;SDS011;39042;53.150;5.898;2024-03-23T06:05:37;12.00;;;2.47;;
53145;SDS011;39042;53.150;5.898;2024-03-23T06:08:03;11.95;;;2.47;;
53145;SDS011;39042;53.150;5.898;2024-03-23T06:10:29;15.88;;;3.40;;
53145;SDS011;39042;53.150;5.898;2024-03-23T06:12:55;15.03;;;3.47;;
53145;SDS011;39042;53.150;5.898;2024-03-23T06:15:21;17.37;;;2.50;;
53145;SDS011;39042;53.150;5.898;2024-03-23T06:17:47;5.70;;;0.70;;
53145;SDS011;39042;53.150;5.898;2024-03-23T06:20:14;7.20;;;1.00;;
53145;SDS011;39042;53.150;5.898;2024-03-23T06:22:39;9.13;;;1.67;;
53145;SDS011;39042;53.150;5.898;2024-03-23T06:25:05;7.53;;;1.27;;
53145;SDS011;39042;53.150;5.898;2024-03-23T06:27:32;3.88;;;0.43;;
53145;SDS011;39042;53.150;5.898;2024-03-23T06:30:01;1.63;;;0.30;;
53145;SDS011;39042;53.150;5.898;2024-03-23T06:32:27;5.50;;;0.40;;
53145;SDS011;39042;53.150;5.898;2024-03-23T06:34:56;4.25;;;0.40;;
53145;SDS011;39042;53.150;5.898;2024-03-23T06:37:22;9.83;;;0.47;;
53145;SDS011;39042;53.150;5.898;2024-03-23T06:39:48;5.03;;;0.40;;
53145;SDS011;39042;53.150;5.898;2024-03-23T06:42:13;5.57;;;0.30;;
53145;SDS011;39042;53.150;5.898;2024-03-23T06:44:39;2.93;;;0.30;;
53145;SDS011;39042;53.150;5.898;2024-03-23T06:47:05;4.35;;;0.45;;
53145;SDS011;39042;53.150;5.898;2024-03-23T06:49:31;4.93;;;0.60;;
53145;SDS011;39042;53.150;5.898;2024-03-23T06:51:57;3.43;;;0.33;;
53145;SDS011;39042;53.150;5.898;2024-03-23T06:54:24;8.30;;;0.68;;
53145;SDS011;39042;53.150;5.898;2024-03-23T06:56:50;6.50;;;0.80;;
53145;SDS011;39042;53.150;5.898;2024-03-23T06:59:16;7.20;;;0.90;;
53145;SDS011;39042;53.150;5.898;2024-03-23T07:01:41;7.23;;;0.60;;
53145;SDS011;39042;53.150;5.898;2024-03-23T07:04:07;9.10;;;1.43;;
53145;SDS011;39042;53.150;5.898;2024-03-23T07:06:33;9.50;;;1.27;;
53145;SDS011;39042;53.150;5.898;2024-03-23T07:08:59;7.85;;;0.93;;
53145;SDS011;39042;53.150;5.898;2024-03-23T07:11:25;12.30;;;1.37;;
53145;SDS011;39042;53.150;5.898;2024-03-23T07:13:52;8.40;;;0.95;;
53145;SDS011;39042;53.150;5.898;2024-03-23T07:16:21;9.13;;;1.40;;
53145;SDS011;39042;53.150;5.898;2024-03-23T07:18:46;9.87;;;1.90;;
53145;SDS011;39042;53.150;5.898;2024-03-23T07:21:12;18.10;;;6.53;;
53145;SDS011;39042;53.150;5.898;2024-03-23T07:23:41;17.50;;;4.20;;
53145;SDS011;39042;53.150;5.898;2024-03-23T07:26:10;17.77;;;7.97;;
53145;SDS011;39042;53.150;5.898;2024-03-23T07:28:36;13.68;;;4.15;;
53145;SDS011;39042;53.150;5.898;2024-03-23T07:31:04;31.70;;;10.15;;
53145;SDS011;39042;53.150;5.898;2024-03-23T07:33:34;20.27;;;8.00;;
53145;SDS011;39042;53.150;5.898;2024-03-23T07:36:00;11.90;;;3.92;;
53145;SDS011;39042;53.150;5.898;2024-03-23T07:38:27;20.05;;;2.15;;
53145;SDS011;39042;53.150;5.898;2024-03-23T07:41:07;8.35;;;2.03;;
53145;SDS011;39042;53.150;5.898;2024-03-23T07:43:37;11.85;;;2.15;;
53145;SDS011;39042;53.150;5.898;2024-03-23T07:48:30;10.25;;;1.13;;
53145;SDS011;39042;53.150;5.898;2024-03-23T07:51:03;12.95;;;1.58;;
53145;SDS011;39042;53.150;5.898;2024-03-23T07:53:30;12.50;;;1.20;;
53145;SDS011;39042;53.150;5.898;2024-03-23T07:55:57;8.52;;;1.40;;
53145;SDS011;39042;53.150;5.898;2024-03-23T07:58:24;11.13;;;1.88;;
53145;SDS011;39042;53.150;5.898;2024-03-23T08:03:20;7.55;;;1.40;;
53145;SDS011;39042;53.150;5.898;2024-03-23T08:05:46;13.88;;;1.60;;
53145;SDS011;39042;53.150;5.898;2024-03-23T08:08:12;12.18;;;1.65;;
53145;SDS011;39042;53.150;5.898;2024-03-23T08:10:48;18.50;;;4.00;;
53145;SDS011;39042;53.150;5.898;2024-03-23T08:13:17;13.95;;;1.50;;
53145;SDS011;39042;53.150;5.898;2024-03-23T08:15:43;10.80;;;2.33;;
53145;SDS011;39042;53.150;5.898;2024-03-23T08:18:10;7.47;;;1.17;;
53145;SDS011;39042;53.150;5.898;2024-03-23T08:20:37;12.02;;;1.80;;
53145;SDS011;39042;53.150;5.898;2024-03-23T08:23:03;18.13;;;4.07;;
53145;SDS011;39042;53.150;5.898;2024-03-23T08:25:31;11.18;;;2.65;;
53145;SDS011;39042;53.150;5.898;2024-03-23T08:27:57;14.82;;;1.77;;
53145;SDS011;39042;53.150;5.898;2024-03-23T08:30:23;13.95;;;2.90;;
53145;SDS011;39042;53.150;5.898;2024-03-23T08:32:49;11.30;;;1.65;;
53145;SDS011;39042;53.150;5.898;2024-03-23T08:35:15;12.60;;;2.37;;
53145;SDS011;39042;53.150;5.898;2024-03-23T08:37:41;10.35;;;1.20;;
53145;SDS011;39042;53.150;5.898;2024-03-23T08:40:07;12.47;;;2.20;;
53145;SDS011;39042;53.150;5.898;2024-03-23T08:42:33;9.63;;;2.03;;
53145;SDS011;39042;53.150;5.898;2024-03-23T08:44:59;9.65;;;1.75;;
53145;SDS011;39042;53.150;5.898;2024-03-23T08:47:25;26.63;;;7.47;;
53145;SDS011;39042;53.150;5.898;2024-03-23T08:49:51;9.70;;;1.30;;
53145;SDS011;39042;53.150;5.898;2024-03-23T08:52:17;12.20;;;1.23;;
53145;SDS011;39042;53.150;5.898;2024-03-23T08:54:43;7.67;;;0.80;;
53145;SDS011;39042;53.150;5.898;2024-03-23T08:57:09;11.67;;;1.17;;
53145;SDS011;39042;53.150;5.898;2024-03-23T08:59:34;14.57;;;3.27;;
53145;SDS011;39042;53.150;5.898;2024-03-23T09:02:00;18.43;;;6.50;;
53145;SDS011;39042;53.150;5.898;2024-03-23T09:04:26;6.65;;;1.05;;
53145;SDS011;39042;53.150;5.898;2024-03-23T09:06:52;9.43;;;1.83;;
53145;SDS011;39042;53.150;5.898;2024-03-23T09:09:18;16.17;;;2.03;;
53145;SDS011;39042;53.150;5.898;2024-03-23T09:11:45;7.82;;;0.60;;
53145;SDS011;39042;53.150;5.898;2024-03-23T09:14:10;2.57;;;0.37;;
53145;SDS011;39042;53.150;5.898;2024-03-23T09:16:36;5.77;;;1.03;;
53145;SDS011;39042;53.150;5.898;2024-03-23T09:19:02;4.70;;;0.47;;
53145;SDS011;39042;53.150;5.898;2024-03-23T09:21:28;5.97;;;1.30;;
53145;SDS011;39042;53.150;5.898;2024-03-23T09:23:54;9.63;;;0.90;;
53145;SDS011;39042;53.150;5.898;2024-03-23T09:26:19;14.23;;;2.13;;
53145;SDS011;39042;53.150;5.898;2024-03-23T09:28:48;10.95;;;1.80;;
53145;SDS011;39042;53.150;5.898;2024-03-23T09:31:14;11.07;;;1.30;;
53145;SDS011;39042;53.150;5.898;2024-03-23T09:33:40;11.52;;;1.60;;
53145;SDS011;39042;53.150;5.898;2024-03-23T09:38:33;15.75;;;1.48;;
53145;SDS011;39042;53.150;5.898;2024-03-23T09:40:59;9.00;;;1.50;;
53145;SDS011;39042;53.150;5.898;2024-03-23T09:43:25;10.73;;;1.98;;
53145;SDS011;39042;53.150;5.898;2024-03-23T09:45:51;12.73;;;2.00;;
53145;SDS011;39042;53.150;5.898;2024-03-23T09:48:18;13.38;;;1.60;;
53145;SDS011;39042;53.150;5.898;2024-03-23T09:50:44;13.20;;;1.30;;
53145;SDS011;39042;53.150;5.898;2024-03-23T09:53:11;3.47;;;0.30;;
53145;SDS011;39042;53.150;5.898;2024-03-23T09:55:42;9.40;;;1.13;;
53145;SDS011;39042;53.150;5.898;2024-03-23T09:58:12;8.23;;;2.25;;
53145;SDS011;39042;53.150;5.898;2024-03-23T10:00:39;5.55;;;0.63;;
53145;SDS011;39042;53.150;5.898;2024-03-23T10:03:04;7.53;;;1.37;;
53145;SDS011;39042;53.150;5.898;2024-03-23T10:07:59;10.20;;;3.03;;
53145;SDS011;39042;53.150;5.898;2024-03-23T10:10:36;14.40;;;3.15;;
53145;SDS011;39042;53.150;5.898;2024-03-23T10:13:01;10.70;;;2.90;;
53145;SDS011;39042;53.150;5.898;2024-03-23T10:15:27;11.80;;;2.40;;
53145;SDS011;39042;53.150;5.898;2024-03-23T10:17:53;6.97;;;1.83;;
53145;SDS011;39042;53.150;5.898;2024-03-23T10:20:22;15.03;;;2.50;;
53145;SDS011;39042;53.150;5.898;2024-03-23T10:22:49;10.98;;;1.83;;
53145;SDS011;39042;53.150;5.898;2024-03-23T10:25:16;8.30;;;1.55;;
53145;SDS011;39042;53.150;5.898;2024-03-23T10:27:43;7.25;;;0.80;;
53145;SDS011;39042;53.150;5.898;2024-03-23T10:30:12;10.60;;;1.75;;
53145;SDS011;39042;53.150;5.898;2024-03-23T10:32:42;11.82;;;1.77;;
53145;SDS011;39042;53.150;5.898;2024-03-23T10:35:17;9.75;;;1.85;;
53145;SDS011;39042;53.150;5.898;2024-03-23T10:37:45;14.70;;;2.25;;
53145;SDS011;39042;53.150;5.898;2024-03-23T10:40:18;10.40;;;1.15;;
53145;SDS011;39042;53.150;5.898;2024-03-23T10:42:44;11.57;;;1.90;;
53145;SDS011;39042;53.150;5.898;2024-03-23T10:45:10;9.73;;;1.10;;
53145;SDS011;39042;53.150;5.898;2024-03-23T10:47:36;6.90;;;0.53;;
53145;SDS011;39042;53.150;5.898;2024-03-23T10:50:03;7.43;;;0.77;;
53145;SDS011;39042;53.150;5.898;2024-03-23T10:52:31;6.70;;;0.80;;
53145;SDS011;39042;53.150;5.898;2024-03-23T10:54:58;10.07;;;1.15;;
53145;SDS011;39042;53.150;5.898;2024-03-23T10:57:29;13.85;;;1.38;;
53145;SDS011;39042;53.150;5.898;2024-03-23T11:00:02;13.15;;;1.23;;
53145;SDS011;39042;53.150;5.898;2024-03-23T11:02:29;8.00;;;0.95;;
53145;SDS011;39042;53.150;5.898;2024-03-23T11:04:55;5.90;;;0.63;;
53145;SDS011;39042;53.150;5.898;2024-03-23T11:17:37;7.25;;;0.93;;
53145;SDS011;39042;53.150;5.898;2024-03-23T11:20:04;8.15;;;0.50;;
53145;SDS011;39042;53.150;5.898;2024-03-23T11:25:11;9.30;;;1.40;;
53145;SDS011;39042;53.150;5.898;2024-03-23T11:27:42;9.05;;;1.25;;
53145;SDS011;39042;53.150;5.898;2024-03-23T11:30:11;8.18;;;1.35;;
53145;SDS011;39042;53.150;5.898;2024-03-23T11:32:37;4.78;;;0.95;;
53145;SDS011;39042;53.150;5.898;2024-03-23T11:35:03;9.57;;;0.90;;
53145;SDS011;39042;53.150;5.898;2024-03-23T11:37:29;9.27;;;1.88;;
53145;SDS011;39042;53.150;5.898;2024-03-23T11:39:55;6.87;;;1.23;;
53145;SDS011;39042;53.150;5.898;2024-03-23T11:42:21;9.03;;;1.23;;
53145;SDS011;39042;53.150;5.898;2024-03-23T11:44:47;11.20;;;1.58;;
53145;SDS011;39042;53.150;5.898;2024-03-23T11:47:12;14.10;;;1.80;;
53145;SDS011;39042;53.150;5.898;2024-03-23T11:49:38;13.13;;;2.37;;
53145;SDS011;39042;53.150;5.898;2024-03-23T11:52:06;20.60;;;5.55;;
53145;SDS011;39042;53.150;5.898;2024-03-23T11:54:35;22.23;;;6.30;;
53145;SDS011;39042;53.150;5.898;2024-03-23T11:57:02;18.80;;;6.83;;
53145;SDS011;39042;53.150;5.898;2024-03-23T11:59:36;17.20;;;5.13;;
53145;SDS011;39042;53.150;5.898;2024-03-23T12:02:09;15.38;;;4.30;;
53145;SDS011;39042;53.150;5.898;2024-03-23T12:04:40;9.70;;;2.88;;
53145;SDS011;39042;53.150;5.898;2024-03-23T12:07:13;7.07;;;1.40;;
53145;SDS011;39042;53.150;5.898;2024-03-23T12:10:04;7.82;;;2.25;;
53145;SDS011;39042;53.150;5.898;2024-03-23T12:12:34;3.67;;;0.80;;
53145;SDS011;39042;53.150;5.898;2024-03-23T12:15:07;2.60;;;0.80;;
53145;SDS011;39042;53.150;5.898;2024-03-23T12:17:33;6.93;;;2.00;;
53145;SDS011;39042;53.150;5.898;2024-03-23T12:20:00;8.65;;;2.70;;
53145;SDS011;39042;53.150;5.898;2024-03-23T12:22:26;7.70;;;2.05;;
53145;SDS011;39042;53.150;5.898;2024-03-23T12:24:52;8.43;;;1.95;;
53145;SDS011;39042;53.150;5.898;2024-03-23T12:27:18;16.05;;;4.35;;
53145;SDS011;39042;53.150;5.898;2024-03-23T12:29:44;14.30;;;4.20;;
53145;SDS011;39042;53.150;5.898;2024-03-23T12:32:15;19.35;;;4.97;;
53145;SDS011;39042;53.150;5.898;2024-03-23T12:34:41;19.45;;;4.75;;
53145;SDS011;39042;53.150;5.898;2024-03-23T12:37:07;14.77;;;3.83;;
53145;SDS011;39042;53.150;5.898;2024-03-23T12:42:01;16.63;;;4.15;;
53145;SDS011;39042;53.150;5.898;2024-03-23T12:44:30;15.18;;;3.70;;
53145;SDS011;39042;53.150;5.898;2024-03-23T12:46:56;12.98;;;2.17;;
53145;SDS011;39042;53.150;5.898;2024-03-23T12:49:22;8.53;;;0.90;;
53145;SDS011;39042;53.150;5.898;2024-03-23T12:51:54;7.43;;;1.00;;
53145;SDS011;39042;53.150;5.898;2024-03-23T12:54:21;7.75;;;0.90;;
53145;SDS011;39042;53.150;5.898;2024-03-23T12:56:47;14.98;;;2.22;;
53145;SDS011;39042;53.150;5.898;2024-03-23T12:59:13;9.83;;;1.43;;
53145;SDS011;39042;53.150;5.898;2024-03-23T13:01:39;13.48;;;1.58;;
53145;SDS011;39042;53.150;5.898;2024-03-23T13:04:06;8.05;;;1.45;;
53145;SDS011;39042;53.150;5.898;2024-03-23T13:06:31;9.40;;;0.82;;
53145;SDS011;39042;53.150;5.898;2024-03-23T13:09:00;6.45;;;0.85;;
53145;SDS011;39042;53.150;5.898;2024-03-23T13:11:26;10.55;;;1.25;;
53145;SDS011;39042;53.150;5.898;2024-03-23T13:16:19;4.78;;;1.38;;
53145;SDS011;39042;53.150;5.898;2024-03-23T13:18:45;4.90;;;0.37;;
53145;SDS011;39042;53.150;5.898;2024-03-23T13:21:13;8.60;;;0.77;;
53145;SDS011;39042;53.150;5.898;2024-03-23T13:23:40;4.13;;;0.60;;
53145;SDS011;39042;53.150;5.898;2024-03-23T13:26:07;8.88;;;1.15;;
53145;SDS011;39042;53.150;5.898;2024-03-23T13:28:33;8.05;;;1.38;;
53145;SDS011;39042;53.150;5.898;2024-03-23T13:31:01;10.30;;;0.90;;
53145;SDS011;39042;53.150;5.898;2024-03-23T13:33:30;9.23;;;0.90;;
53145;SDS011;39042;53.150;5.898;2024-03-23T13:35:57;6.53;;;0.80;;
53145;SDS011;39042;53.150;5.898;2024-03-23T13:38:23;5.90;;;1.13;;
53145;SDS011;39042;53.150;5.898;2024-03-23T13:43:23;6.70;;;0.85;;
53145;SDS011;39042;53.150;5.898;2024-03-23T13:45:56;13.23;;;1.13;;
53145;SDS011;39042;53.150;5.898;2024-03-23T13:48:24;7.90;;;0.68;;
53145;SDS011;39042;53.150;5.898;2024-03-23T13:51:01;11.65;;;2.35;;
53145;SDS011;39042;53.150;5.898;2024-03-23T13:53:28;11.07;;;1.48;;
53145;SDS011;39042;53.150;5.898;2024-03-23T13:55:54;13.48;;;1.73;;
53145;SDS011;39042;53.150;5.898;2024-03-23T13:58:20;9.63;;;1.05;;
53145;SDS011;39042;53.150;5.898;2024-03-23T14:00:49;17.25;;;2.47;;
53145;SDS011;39042;53.150;5.898;2024-03-23T14:03:15;15.27;;;3.57;;
53145;SDS011;39042;53.150;5.898;2024-03-23T14:05:41;15.97;;;1.43;;
53145;SDS011;39042;53.150;5.898;2024-03-23T14:08:10;13.10;;;1.42;;
53145;SDS011;39042;53.150;5.898;2024-03-23T14:10:36;9.00;;;0.90;;
53145;SDS011;39042;53.150;5.898;2024-03-23T14:13:05;9.95;;;2.03;;
53145;SDS011;39042;53.150;5.898;2024-03-23T14:15:31;7.50;;;1.13;;
53145;SDS011;39042;53.150;5.898;2024-03-23T14:17:57;14.27;;;1.70;;
53145;SDS011;39042;53.150;5.898;2024-03-23T14:20:24;22.23;;;6.60;;
53145;SDS011;39042;53.150;5.898;2024-03-23T14:22:51;28.35;;;10.25;;
53145;SDS011;39042;53.150;5.898;2024-03-23T14:25:17;21.83;;;6.93;;
53145;SDS011;39042;53.150;5.898;2024-03-23T14:27:46;19.80;;;5.10;;
53145;SDS011;39042;53.150;5.898;2024-03-23T14:30:12;11.77;;;3.33;;
53145;SDS011;39042;53.150;5.898;2024-03-23T14:35:05;11.27;;;2.90;;
53145;SDS011;39042;53.150;5.898;2024-03-23T14:37:32;10.13;;;2.28;;
53145;SDS011;39042;53.150;5.898;2024-03-23T14:39:58;13.90;;;2.57;;
53145;SDS011;39042;53.150;5.898;2024-03-23T14:42:24;11.23;;;2.63;;
53145;SDS011;39042;53.150;5.898;2024-03-23T14:44:51;23.02;;;4.97;;
53145;SDS011;39042;53.150;5.898;2024-03-23T14:49:44;10.30;;;2.08;;
53145;SDS011;39042;53.150;5.898;2024-03-23T14:52:13;15.23;;;1.70;;
53145;SDS011;39042;53.150;5.898;2024-03-23T14:54:39;10.07;;;1.90;;
53145;SDS011;39042;53.150;5.898;2024-03-23T14:57:05;12.75;;;1.95;;
53145;SDS011;39042;53.150;5.898;2024-03-23T14:59:34;11.88;;;1.80;;
53145;SDS011;39042;53.150;5.898;2024-03-23T15:02:00;10.85;;;2.08;;
53145;SDS011;39042;53.150;5.898;2024-03-23T15:04:26;9.87;;;1.10;;
53145;SDS011;39042;53.150;5.898;2024-03-23T15:06:52;11.90;;;1.57;;
53145;SDS011;39042;53.150;5.898;2024-03-23T15:09:18;15.30;;;1.67;;
53145;SDS011;39042;53.150;5.898;2024-03-23T15:11:44;10.10;;;1.30;;
53145;SDS011;39042;53.150;5.898;2024-03-23T15:14:09;8.87;;;0.97;;
53145;SDS011;39042;53.150;5.898;2024-03-23T15:16:36;12.98;;;2.53;;
53145;SDS011;39042;53.150;5.898;2024-03-23T15:19:02;8.23;;;1.10;;
53145;SDS011;39042;53.150;5.898;2024-03-23T15:21:30;10.35;;;1.30;;
53145;SDS011;39042;53.150;5.898;2024-03-23T15:23:56;6.37;;;0.87;;
53145;SDS011;39042;53.150;5.898;2024-03-23T15:26:22;3.00;;;0.63;;
53145;SDS011;39042;53.150;5.898;2024-03-23T15:28:48;10.77;;;1.23;;
53145;SDS011;39042;53.150;5.898;2024-03-23T15:31:24;8.60;;;1.13;;
53145;SDS011;39042;53.150;5.898;2024-03-23T15:33:50;5.22;;;1.10;;
53145;SDS011;39042;53.150;5.898;2024-03-23T15:36:16;15.90;;;2.45;;
53145;SDS011;39042;53.150;5.898;2024-03-23T15:38:43;14.75;;;1.30;;
53145;SDS011;39042;53.150;5.898;2024-03-23T15:41:09;11.38;;;1.48;;
53145;SDS011;39042;53.150;5.898;2024-03-23T15:43:35;5.82;;;1.08;;
53145;SDS011;39042;53.150;5.898;2024-03-23T15:46:02;6.63;;;1.80;;
53145;SDS011;39042;53.150;5.898;2024-03-23T15:48:29;15.05;;;3.30;;
53145;SDS011;39042;53.150;5.898;2024-03-23T15:50:57;12.77;;;3.25;;
53145;SDS011;39042;53.150;5.898;2024-03-23T15:53:24;7.90;;;1.40;;
53145;SDS011;39042;53.150;5.898;2024-03-23T15:58:20;8.27;;;1.25;;
53145;SDS011;39042;53.150;5.898;2024-03-23T16:00:57;11.13;;;2.78;;
53145;SDS011;39042;53.150;5.898;2024-03-23T16:03:23;11.93;;;2.58;;
53145;SDS011;39042;53.150;5.898;2024-03-23T16:05:52;11.15;;;1.70;;
53145;SDS011;39042;53.150;5.898;2024-03-23T16:10:44;10.55;;;1.20;;
53145;SDS011;39042;53.150;5.898;2024-03-23T16:13:10;10.98;;;1.65;;